createdAt,value
2019-02-23T00:03:45.619Z,103961.02
2019-02-23T00:08:48.512Z,103962.17
2019-02-23T00:13:51.641Z,103963.08
2019-02-23T00:18:55.132Z,103950.71
2019-02-23T00:23:57.992Z,103962.34
2019-02-23T00:29:01.569Z,103974.14
2019-02-23T00:34:04.459Z,103971.97
2019-02-23T00:39:08.302Z,103958.25
2019-02-23T00:44:10.793Z,103952.84
2019-02-23T00:49:13.420Z,103961.02
2019-02-23T00:54:16.143Z,103952.94
2019-02-23T00:59:19.359Z,103946.39
2019-02-23T01:04:22.290Z,103965.52
2019-02-23T01:09:25.553Z,103979.42
2019-02-23T01:14:28.788Z,103989.71
2019-02-23T01:19:32.241Z,103995.45
2019-02-23T01:24:35.124Z,104001.97
2019-02-23T01:29:38.634Z,103999.08
2019-02-23T01:34:41.104Z,104002.66
2019-02-23T01:39:44.639Z,103987.29
2019-02-23T01:44:48.170Z,103989.50
2019-02-23T01:49:58.540Z,103996.37
2019-02-23T01:54:55.570Z,103994.48
2019-02-23T01:59:59.174Z,104006.66
2019-02-23T02:05:02.612Z,104001.08
2019-02-23T02:10:08.270Z,104000.42
2019-02-23T02:15:12.755Z,103991.21
2019-02-23T02:20:16.273Z,103979.20
2019-02-23T02:25:19.484Z,103978.23
2019-02-23T02:30:24.256Z,103961.39
2019-02-23T02:35:27.448Z,103959.16
2019-02-23T02:40:30.659Z,103958.23
2019-02-23T02:45:33.840Z,103948.64
2019-02-23T02:50:37.113Z,103965.48
2019-02-23T02:55:40.250Z,103951.95
2019-02-23T03:00:43.483Z,103966.05
2019-02-23T03:05:46.689Z,103972.91
2019-02-23T03:10:49.928Z,103976.70
2019-02-23T03:15:52.905Z,103966.48
2019-02-23T03:20:55.468Z,103970.96
2019-02-23T03:25:58.416Z,103990.13
2019-02-23T03:31:01.327Z,103981.18
2019-02-23T03:36:04.540Z,103971.23
2019-02-23T03:41:07.759Z,103966.55
2019-02-23T03:46:11.144Z,103961.97
2019-02-23T03:51:14.006Z,103960.73
2019-02-23T03:56:17.156Z,103952.44
2019-02-23T04:01:20.351Z,103961.80
2019-02-23T04:06:23.618Z,103969.39
2019-02-23T04:11:26.891Z,103980.45
2019-02-23T04:16:30.473Z,103979.28
2019-02-23T04:21:33.869Z,103978.38
2019-02-23T04:26:37.315Z,103979.05
2019-02-23T04:31:40.213Z,103982.20
2019-02-23T04:36:43.532Z,103980.67
2019-02-23T04:41:46.784Z,103978.45
2019-02-23T04:46:50.389Z,103974.22
2019-02-23T04:51:53.375Z,103969.27
2019-02-23T04:56:56.178Z,103963.84
2019-02-23T05:01:59.194Z,103949.44
2019-02-23T05:07:02.053Z,103950.95
2019-02-23T05:12:04.958Z,103945.02
2019-02-23T05:17:07.813Z,103947.68
2019-02-23T05:22:10.380Z,103942.91
2019-02-23T05:27:15.350Z,103949.05
2019-02-23T05:32:18.535Z,103942.80
2019-02-23T05:37:21.887Z,103946.80
2019-02-23T05:42:24.777Z,103951.82
2019-02-23T05:47:28.000Z,103966.80
2019-02-23T05:52:31.165Z,103960.98
2019-02-23T05:57:34.381Z,103961.82
2019-02-23T06:02:37.300Z,103947.68
2019-02-23T06:07:40.510Z,103942.14
2019-02-23T06:12:43.435Z,103943.68
2019-02-23T06:17:46.985Z,103945.41
2019-02-23T06:22:50.606Z,103953.97
2019-02-23T06:27:53.454Z,103948.72
2019-02-23T06:32:56.316Z,103933.95
2019-02-23T06:37:59.267Z,103938.61
2019-02-23T06:43:02.405Z,103928.45
2019-02-23T06:48:05.089Z,103913.39
2019-02-23T06:53:08.325Z,103915.69
2019-02-23T06:58:11.201Z,103919.70
2019-02-23T07:03:13.668Z,103926.03
2019-02-23T07:08:16.610Z,103930.77
2019-02-23T07:13:19.482Z,103953.19
2019-02-23T07:18:22.356Z,103972.06
2019-02-23T07:23:25.188Z,103966.33
2019-02-23T07:28:28.393Z,103949.44
2019-02-23T07:33:33.089Z,103945.14
2019-02-23T07:38:36.349Z,103927.22
2019-02-23T07:43:39.570Z,103916.42
2019-02-23T07:48:43.059Z,103913.87
2019-02-23T07:53:46.320Z,103922.08
2019-02-23T07:58:49.490Z,103929.55
2019-02-23T08:03:53.007Z,103916.34
2019-02-23T08:08:56.531Z,103917.84
2019-02-23T08:13:59.441Z,103897.63
2019-02-23T08:19:02.348Z,103902.92
2019-02-23T08:24:05.364Z,103904.44
2019-02-23T08:29:08.548Z,103925.45
2019-02-23T08:34:12.063Z,103926.39
2019-02-23T08:39:15.391Z,103915.70
2019-02-23T08:44:18.563Z,103904.15
2019-02-23T08:49:22.056Z,103902.79
2019-02-23T08:54:24.965Z,103901.13
2019-02-23T08:59:28.286Z,103897.80
2019-02-23T09:04:30.862Z,103896.80
2019-02-23T09:09:34.137Z,103906.84
2019-02-23T09:14:37.357Z,103894.21
2019-02-23T09:19:40.244Z,103887.02
2019-02-23T09:24:43.209Z,103876.70
2019-02-23T09:29:46.344Z,103862.95
2019-02-23T09:34:49.219Z,103858.19
2019-02-23T09:39:52.054Z,103853.80
2019-02-23T09:44:55.383Z,103836.93
2019-02-23T09:49:58.912Z,103834.27
2019-02-23T09:55:02.517Z,103828.55
2019-02-23T10:00:07.139Z,103850.48
2019-02-23T10:05:10.688Z,103858.14
2019-02-23T10:10:13.906Z,103857.80
2019-02-23T10:15:17.468Z,103886.36
2019-02-23T10:20:20.908Z,103863.09
2019-02-23T10:25:23.840Z,103854.75
2019-02-23T10:30:27.296Z,103859.80
2019-02-23T10:35:30.520Z,103864.14
2019-02-23T10:40:33.761Z,103871.81
2019-02-23T10:45:38.340Z,103885.55
2019-02-23T10:50:41.549Z,103895.16
2019-02-23T10:55:45.201Z,103895.98
2019-02-23T11:00:48.500Z,103890.19
2019-02-23T11:05:52.046Z,103882.01
2019-02-23T11:10:55.220Z,103868.00
2019-02-23T11:15:58.187Z,103848.88
2019-02-23T11:21:01.284Z,103840.98
2019-02-23T11:26:05.883Z,103827.16
2019-02-23T11:31:09.153Z,103821.42
2019-02-23T11:36:12.655Z,103799.79
2019-02-23T11:41:15.958Z,103797.70
2019-02-23T11:46:19.209Z,103794.73
2019-02-23T11:51:22.389Z,103789.77
2019-02-23T11:56:25.302Z,103799.83
2019-02-23T12:01:28.106Z,103802.52
2019-02-23T12:06:31.307Z,103796.00
2019-02-23T12:11:34.532Z,103785.48
2019-02-23T12:16:38.150Z,103778.30
2019-02-23T12:21:40.940Z,103778.87
2019-02-23T12:26:44.481Z,103769.41
2019-02-23T12:31:47.875Z,103767.86
2019-02-23T12:36:50.988Z,103765.69
2019-02-23T12:41:54.246Z,103774.37
2019-02-23T12:46:56.426Z,103780.54
2019-02-23T12:51:59.475Z,103767.80
2019-02-23T12:57:03.120Z,103755.31
2019-02-23T13:02:06.418Z,103744.05
2019-02-23T13:07:10.183Z,103746.59
2019-02-23T13:12:53.867Z,103745.07
2019-02-23T13:18:44.730Z,103735.86
2019-02-23T13:24:29.302Z,103722.37
2019-02-23T13:30:09.600Z,103717.31
2019-02-23T13:35:31.066Z,103713.32
2019-02-23T13:41:15.163Z,103710.35
2019-02-23T13:47:11.761Z,103710.50
2019-02-23T13:53:08.625Z,103707.98
2019-02-23T13:58:39.508Z,103709.10
2019-02-23T14:04:32.786Z,103692.45
2019-02-23T14:10:30.052Z,103698.09
2019-02-23T14:16:16.566Z,103699.84
2019-02-23T14:21:47.007Z,103697.09
2019-02-23T14:27:35.950Z,103699.20
2019-02-23T14:33:29.794Z,103700.47
2019-02-23T14:38:57.222Z,103709.75
2019-02-23T14:44:31.278Z,103712.42
2019-02-23T14:50:13.491Z,103705.14
2019-02-23T14:55:58.108Z,103697.82
2019-02-23T15:01:51.814Z,103690.41
2019-02-23T15:07:34.607Z,103693.95
2019-02-23T15:12:59.831Z,103701.67
2019-02-23T15:18:55.720Z,103694.82
2019-02-23T15:24:55.243Z,103697.97
2019-02-23T15:30:45.901Z,103688.22
2019-02-23T15:36:26.255Z,103686.79
2019-02-23T15:42:09.829Z,103675.03
2019-02-23T15:47:50.738Z,103670.03
2019-02-23T15:52:53.994Z,103669.25
2019-02-23T15:57:57.777Z,103665.38
2019-02-23T16:03:00.745Z,103658.73
2019-02-23T16:08:03.856Z,103661.59
2019-02-23T16:13:07.381Z,103658.29
2019-02-23T16:18:10.989Z,103648.88
2019-02-23T16:23:13.583Z,103655.04
2019-02-23T16:28:17.091Z,103650.91
2019-02-23T16:33:20.114Z,103642.50
2019-02-23T16:38:23.122Z,103650.91
2019-02-23T16:43:26.659Z,103652.41
2019-02-23T16:48:29.934Z,103648.34
2019-02-23T16:53:32.847Z,103647.45
2019-02-23T16:58:36.038Z,103647.73
2019-02-23T17:03:39.684Z,103648.22
2019-02-23T17:08:43.203Z,103654.56
2019-02-23T17:13:48.209Z,103646.78
2019-02-23T17:18:51.635Z,103657.44
2019-02-23T17:23:55.495Z,103657.98
2019-02-23T17:28:59.002Z,103660.06
2019-02-23T17:34:02.253Z,103662.09
2019-02-23T17:39:06.590Z,103659.50
2019-02-23T17:44:10.053Z,103652.63
2019-02-23T17:49:13.479Z,103654.50
2019-02-23T17:54:16.816Z,103654.00
2019-02-23T17:59:19.540Z,103656.09
2019-02-23T18:04:22.889Z,103652.34
2019-02-23T18:09:26.361Z,103652.61
2019-02-23T18:14:30.028Z,103655.66
2019-02-23T18:19:33.092Z,103666.86
2019-02-23T18:24:36.705Z,103655.26
2019-02-23T18:29:40.904Z,103657.27
2019-02-23T18:34:44.489Z,103658.42
2019-02-23T18:39:47.745Z,103652.12
2019-02-23T18:44:51.270Z,103646.45
2019-02-23T18:49:54.878Z,103627.69
2019-02-23T18:54:58.394Z,103657.52
2019-02-23T19:00:01.750Z,103655.58
2019-02-23T19:05:06.610Z,103652.57
2019-02-23T19:10:10.494Z,103648.88
2019-02-23T19:15:13.492Z,103649.92
2019-02-23T19:20:17.093Z,103642.30
2019-02-23T19:25:20.635Z,103644.74
2019-02-23T19:30:24.171Z,103637.03
2019-02-23T19:35:29.132Z,103640.22
2019-02-23T19:40:33.022Z,103631.16
2019-02-23T19:45:36.671Z,103624.75
2019-02-23T19:50:43.499Z,103617.98
2019-02-23T19:55:46.840Z,103616.73
2019-02-23T20:00:51.410Z,103614.31
2019-02-23T20:05:55.675Z,103613.73
2019-02-23T20:10:59.250Z,103611.19
2019-02-23T20:16:04.374Z,103617.01
2019-02-23T20:21:08.363Z,103606.80
2019-02-23T20:26:11.770Z,103607.59
2019-02-23T20:31:14.979Z,103611.22
2019-02-23T20:36:18.986Z,103620.77
2019-02-23T20:41:22.393Z,103610.97
2019-02-23T20:46:28.083Z,103621.72
2019-02-23T20:51:31.384Z,103613.14
2019-02-23T20:56:34.832Z,103610.86
2019-02-23T21:01:38.423Z,103607.68
2019-02-23T21:06:41.719Z,103601.28
2019-02-23T21:11:45.029Z,103599.16
2019-02-23T21:16:48.803Z,103595.36
2019-02-23T21:21:52.448Z,103587.94
2019-02-23T21:26:55.990Z,103586.02
2019-02-23T21:31:59.537Z,103585.99
2019-02-23T21:37:02.893Z,103575.41
2019-02-23T21:42:06.162Z,103571.66
2019-02-23T21:47:09.365Z,103567.05
2019-02-23T21:52:13.190Z,103578.50
2019-02-23T21:57:22.195Z,103562.65
2019-02-23T22:02:22.118Z,103562.05
2019-02-23T22:07:25.447Z,103571.80
2019-02-23T22:12:28.574Z,103568.14
2019-02-23T22:17:32.167Z,103565.98
2019-02-23T22:22:35.069Z,103563.92
2019-02-23T22:27:38.552Z,103558.73
2019-02-23T22:32:41.722Z,103560.53
2019-02-23T22:37:44.913Z,103574.70
2019-02-23T22:42:48.374Z,103574.38
2019-02-23T22:47:51.545Z,103583.41
2019-02-23T22:52:54.742Z,103577.36
2019-02-23T22:57:57.235Z,103587.06
2019-02-23T23:03:00.711Z,103584.78
2019-02-23T23:08:04.074Z,103583.30
2019-02-23T23:13:07.024Z,103583.22
2019-02-23T23:18:11.508Z,103586.52
2019-02-23T23:23:14.103Z,103584.25
2019-02-23T23:28:17.072Z,103594.59
2019-02-23T23:33:19.982Z,103574.12
2019-02-23T23:38:22.819Z,103574.89
2019-02-23T23:43:26.362Z,103571.14
2019-02-23T23:48:29.191Z,103569.50
2019-02-23T23:53:32.558Z,103564.89
2019-02-23T23:58:36.024Z,103567.20
